الصفحة الرئيسية
METAR-TAF:

METAR-TAF

مطار :

مطار بكين العاصمة الدولي

بكين, جمهورية الصين الشعبية

دائرة عرض: 39-56N, خط طول: 116-17E, ارتفاع: 55 متر

مراقبة الطقس الحالي

تاريخ ووقت الإصدار 38 دقيقة قبل الساعة 22:30UTC
ريح 2 عقدة من الشمال
درجة الحرارة 7°درجة مئوية
الرطوبة 93%
ضغط 1023 hPa
الرؤية: 5000 متر
غشاء

METAR: ZBAA 202230Z 35001MPS 5000 BR NSC 07/06 Q1023 NOSIG

زمن: 07:08 (23:08 UTC)

توقعات

تاريخ ووقت الإصدار 7ساعات و 38 دقيقة قبل الساعة 15:30UTC
التوقعات صالحة من20 الساعة 18 UTC إلى 21 الساعة 18 UTC
ريح 8 عقدة من الجنوب
الرؤية: 3500 متر
غشاء

TAF: ZBAA 201530Z 2018/2118 18004MPS 3500 BR NSC TX18/2107Z TN04/2021Z

أرصاد الطقس والتوقعات من أكثر من 4000 مطار (تقارير الطقس للمطار METAR والتنبؤ بالطقس بالمطارTAF).

المحطات المتاحة هي النقط الصفراء والحمراء على الخريطة.

حرك المؤشر فوق النقطة لمعرفة اسم المحطة.

ثم انقر لمعرفة أرصاد وتوقعات الطقس.

لتغيير الخارطة: اضغط على الأزرار الخضراء مع رمز الصليب الأسود للتكبير. على الزر الأخضر مع شرطة للتصغير، أو على الأسهم الخضراء للخرائط المجاورة.


METAR-TAF: